createdAt,value
2017-06-20T00:00:42.784Z,0
2017-06-20T00:01:42.870Z,0
2017-06-20T00:02:42.988Z,0
2017-06-20T00:03:42.997Z,0
2017-06-20T00:04:42.996Z,0
2017-06-20T00:05:43.059Z,0
2017-06-20T00:06:43.071Z,0
2017-06-20T00:07:43.096Z,0
2017-06-20T00:08:43.127Z,0
2017-06-20T00:09:43.101Z,0
2017-06-20T00:10:43.162Z,0
2017-06-20T00:11:43.281Z,0
2017-06-20T00:12:43.274Z,0
2017-06-20T00:13:43.309Z,0
2017-06-20T00:14:43.307Z,0
2017-06-20T00:15:43.377Z,0
2017-06-20T00:16:43.435Z,0
2017-06-20T00:17:43.419Z,0
2017-06-20T00:18:43.458Z,0
2017-06-20T00:19:43.550Z,0
2017-06-20T00:20:43.558Z,0
2017-06-20T00:21:43.637Z,0
2017-06-20T00:22:43.670Z,0
2017-06-20T00:23:43.697Z,0
2017-06-20T00:24:43.687Z,0
2017-06-20T00:25:43.775Z,0
2017-06-20T00:26:43.812Z,0
2017-06-20T00:27:43.793Z,0
2017-06-20T00:28:43.834Z,0
2017-06-20T00:29:43.894Z,0
2017-06-20T00:30:43.907Z,0
2017-06-20T00:31:43.978Z,0
2017-06-20T00:32:44.012Z,0
2017-06-20T00:33:44.045Z,0
2017-06-20T00:34:44.112Z,0
2017-06-20T00:35:44.151Z,0
2017-06-20T00:36:44.171Z,0
2017-06-20T00:37:44.171Z,0
2017-06-20T00:38:44.265Z,0
2017-06-20T00:39:44.273Z,0
2017-06-20T00:40:44.312Z,0
2017-06-20T00:41:44.313Z,0
2017-06-20T00:42:44.335Z,0
2017-06-20T00:43:44.433Z,0
2017-06-20T00:44:44.436Z,0
2017-06-20T00:45:44.501Z,0
2017-06-20T00:46:44.556Z,0
2017-06-20T00:47:44.543Z,0
2017-06-20T00:48:44.557Z,0
2017-06-20T00:49:44.606Z,0
2017-06-20T00:50:44.662Z,0
2017-06-20T00:51:44.676Z,0
2017-06-20T00:52:44.757Z,0
2017-06-20T00:53:44.806Z,0
2017-06-20T00:54:44.805Z,0
2017-06-20T00:55:44.853Z,0
2017-06-20T00:56:44.886Z,0
2017-06-20T00:57:44.939Z,0
2017-06-20T00:58:44.941Z,0
2017-06-20T00:59:45.008Z,0
2017-06-20T01:00:45.045Z,0
2017-06-20T01:01:45.098Z,0
2017-06-20T01:02:45.108Z,0
2017-06-20T01:03:45.198Z,0
2017-06-20T01:04:45.158Z,0
2017-06-20T01:05:45.317Z,0
2017-06-20T01:06:45.305Z,0
2017-06-20T01:07:45.314Z,0
2017-06-20T01:08:45.376Z,0
2017-06-20T01:09:45.334Z,0
2017-06-20T01:10:45.341Z,0
2017-06-20T01:11:45.415Z,0
2017-06-20T01:12:45.418Z,0
2017-06-20T01:13:45.484Z,0
2017-06-20T01:14:45.576Z,0
2017-06-20T01:15:45.606Z,0
2017-06-20T01:16:45.625Z,0
2017-06-20T01:17:45.703Z,0
2017-06-20T01:18:45.675Z,0
2017-06-20T01:19:45.712Z,0
2017-06-20T01:20:45.770Z,0
2017-06-20T01:21:45.790Z,0
2017-06-20T01:22:45.817Z,0
2017-06-20T01:23:45.901Z,0
2017-06-20T01:24:45.919Z,0
2017-06-20T01:25:45.950Z,0
2017-06-20T01:26:45.925Z,0
2017-06-20T01:27:45.973Z,0
2017-06-20T01:28:46.073Z,0
2017-06-20T01:29:46.067Z,0
2017-06-20T01:30:46.128Z,0
2017-06-20T01:31:46.200Z,0
2017-06-20T01:32:46.203Z,0
2017-06-20T01:33:46.199Z,0
2017-06-20T01:34:46.228Z,0
2017-06-20T01:35:46.314Z,0
2017-06-20T01:36:46.401Z,0
2017-06-20T01:37:46.372Z,0
2017-06-20T01:38:46.466Z,0
2017-06-20T01:39:46.437Z,0
2017-06-20T01:40:46.495Z,0
2017-06-20T01:41:46.553Z,0
2017-06-20T01:42:46.612Z,0
2017-06-20T01:43:46.611Z,0
2017-06-20T01:44:46.612Z,0
2017-06-20T01:45:46.683Z,0
2017-06-20T01:46:46.705Z,0
2017-06-20T01:47:46.753Z,0
2017-06-20T01:48:46.794Z,0
2017-06-20T01:49:46.780Z,0
2017-06-20T01:50:46.895Z,0
2017-06-20T01:51:46.894Z,0
2017-06-20T01:52:46.950Z,0
2017-06-20T01:53:46.953Z,0
2017-06-20T01:54:47.018Z,0
2017-06-20T01:55:47.069Z,0
2017-06-20T01:56:47.065Z,0
2017-06-20T01:57:47.112Z,0
2017-06-20T01:58:47.198Z,0
2017-06-20T01:59:47.209Z,0
2017-06-20T02:00:47.243Z,0
2017-06-20T02:01:47.250Z,0
2017-06-20T02:02:47.314Z,0
2017-06-20T02:03:47.330Z,0
2017-06-20T02:04:47.387Z,0
2017-06-20T02:05:47.592Z,0
2017-06-20T02:06:47.398Z,0
2017-06-20T02:07:47.516Z,0
2017-06-20T02:08:47.502Z,0
2017-06-20T02:09:47.531Z,0
2017-06-20T02:10:47.573Z,0
2017-06-20T02:11:47.612Z,0
2017-06-20T02:12:47.619Z,0
2017-06-20T02:13:47.660Z,0
2017-06-20T02:14:47.756Z,0
2017-06-20T02:15:47.745Z,0
2017-06-20T02:16:47.763Z,0
2017-06-20T02:17:47.782Z,0
2017-06-20T02:18:47.919Z,0
2017-06-20T02:19:47.918Z,0
2017-06-20T02:20:47.885Z,0
2017-06-20T02:21:47.952Z,0
2017-06-20T02:22:47.989Z,0
2017-06-20T02:23:48.015Z,0
2017-06-20T02:24:48.083Z,0
2017-06-20T02:25:48.127Z,0
2017-06-20T02:26:48.142Z,0
2017-06-20T02:27:48.147Z,0
2017-06-20T02:28:48.180Z,0
2017-06-20T02:29:48.327Z,0
2017-06-20T02:30:48.256Z,0
2017-06-20T02:31:48.366Z,0
2017-06-20T02:32:48.375Z,0
2017-06-20T02:33:48.397Z,0
2017-06-20T02:34:48.413Z,0
2017-06-20T02:35:48.477Z,0
2017-06-20T02:36:48.525Z,0
2017-06-20T02:37:48.567Z,0
2017-06-20T02:38:48.622Z,5
2017-06-20T02:39:48.554Z,5
2017-06-20T02:40:48.689Z,5
2017-06-20T02:41:48.659Z,5
2017-06-20T02:42:48.755Z,5
2017-06-20T02:43:48.781Z,5
2017-06-20T02:44:48.821Z,5
2017-06-20T02:45:48.870Z,5
2017-06-20T02:46:48.921Z,5
2017-06-20T02:47:48.943Z,5
2017-06-20T02:48:48.931Z,5
2017-06-20T02:49:48.952Z,10
2017-06-20T02:50:49.004Z,10
2017-06-20T02:51:49.032Z,10
2017-06-20T02:52:49.082Z,10
2017-06-20T02:53:49.047Z,10
2017-06-20T02:54:49.181Z,15
2017-06-20T02:55:49.245Z,15
2017-06-20T02:56:49.197Z,15
2017-06-20T02:57:49.209Z,15
2017-06-20T02:58:49.281Z,15
2017-06-20T02:59:49.437Z,20
2017-06-20T03:00:49.387Z,20
2017-06-20T03:01:49.421Z,20
2017-06-20T03:02:49.485Z,20
2017-06-20T03:03:49.503Z,20
2017-06-20T03:04:49.527Z,25
2017-06-20T03:05:49.575Z,25
2017-06-20T03:06:49.541Z,25
2017-06-20T03:07:49.598Z,25
2017-06-20T03:08:49.662Z,30
2017-06-20T03:09:49.691Z,30
2017-06-20T03:10:49.735Z,30
2017-06-20T03:11:49.776Z,30
2017-06-20T03:12:49.825Z,35
2017-06-20T03:13:49.796Z,35
2017-06-20T03:14:49.903Z,35
2017-06-20T03:15:49.944Z,40
2017-06-20T03:16:49.955Z,40
2017-06-20T03:17:50.062Z,40
2017-06-20T03:18:50.011Z,45
2017-06-20T03:19:50.042Z,45
2017-06-20T03:20:50.090Z,45
2017-06-20T03:21:50.092Z,45
2017-06-20T03:22:50.183Z,50
2017-06-20T03:23:50.225Z,50
2017-06-20T03:24:50.168Z,50
2017-06-20T03:25:50.262Z,55
2017-06-20T03:26:50.318Z,55
2017-06-20T03:27:50.305Z,55
2017-06-20T03:28:50.413Z,55
2017-06-20T03:29:50.406Z,60
2017-06-20T03:30:50.425Z,60
2017-06-20T03:31:50.455Z,60
2017-06-20T03:32:50.460Z,65
2017-06-20T03:33:50.557Z,65
2017-06-20T03:34:50.622Z,65
2017-06-20T03:35:50.649Z,65
2017-06-20T03:36:50.699Z,70
2017-06-20T03:37:50.764Z,70
2017-06-20T03:38:50.707Z,75
2017-06-20T03:39:50.746Z,75
2017-06-20T03:40:50.818Z,80
2017-06-20T03:41:50.861Z,80
2017-06-20T03:42:50.906Z,80
2017-06-20T03:43:50.924Z,80
2017-06-20T03:44:50.925Z,85
2017-06-20T03:45:50.957Z,85
2017-06-20T03:46:51.031Z,90
2017-06-20T03:47:51.056Z,90
2017-06-20T03:48:51.035Z,95
2017-06-20T03:49:51.149Z,95
2017-06-20T03:50:51.158Z,95
2017-06-20T03:51:51.203Z,100
2017-06-20T03:52:51.269Z,100
2017-06-20T03:53:51.314Z,100
2017-06-20T03:54:51.360Z,100
2017-06-20T03:55:51.336Z,100
2017-06-20T03:56:51.383Z,105
2017-06-20T03:57:51.393Z,105
2017-06-20T03:58:51.473Z,110
2017-06-20T03:59:51.548Z,110
2017-06-20T04:00:51.472Z,115
2017-06-20T04:01:51.495Z,115
2017-06-20T04:02:51.517Z,115
2017-06-20T04:03:51.570Z,120
2017-06-20T04:04:51.619Z,120
2017-06-20T04:05:51.698Z,125
2017-06-20T04:06:51.651Z,130
2017-06-20T04:07:51.711Z,135
2017-06-20T04:08:51.739Z,140
2017-06-20T04:09:51.792Z,150
2017-06-20T04:10:51.824Z,155
2017-06-20T04:11:51.847Z,170
2017-06-20T04:12:51.892Z,190
2017-06-20T04:13:51.920Z,230
2017-06-20T04:14:51.941Z,305
2017-06-20T04:15:52.019Z,370
2017-06-20T04:16:52.041Z,395
2017-06-20T04:17:52.063Z,395
2017-06-20T04:18:52.112Z,380
2017-06-20T04:19:52.152Z,365
2017-06-20T04:20:52.190Z,345
2017-06-20T04:21:52.221Z,305
2017-06-20T04:22:52.250Z,320
2017-06-20T04:23:52.299Z,420
2017-06-20T04:24:52.302Z,565
2017-06-20T04:25:52.377Z,685
2017-06-20T04:26:52.409Z,795
2017-06-20T04:27:52.440Z,860
2017-06-20T04:28:52.486Z,925
2017-06-20T04:29:52.514Z,980
2017-06-20T04:30:52.572Z,1045
2017-06-20T04:31:52.613Z,1020
2017-06-20T04:32:52.648Z,830
2017-06-20T04:33:52.643Z,410
2017-06-20T04:34:52.728Z,315
2017-06-20T04:35:52.756Z,285
2017-06-20T04:36:52.791Z,270
2017-06-20T04:37:52.840Z,310
2017-06-20T04:38:52.853Z,410
2017-06-20T04:39:52.933Z,280
2017-06-20T04:40:52.957Z,325
2017-06-20T04:41:52.991Z,365
2017-06-20T04:42:53.043Z,345
2017-06-20T04:43:53.089Z,345
2017-06-20T04:44:53.123Z,375
2017-06-20T04:45:53.154Z,555
2017-06-20T04:46:53.189Z,700
2017-06-20T04:47:53.231Z,560
2017-06-20T04:48:53.272Z,480
2017-06-20T04:49:53.323Z,490
2017-06-20T04:50:53.343Z,630
2017-06-20T04:51:53.395Z,630
2017-06-20T04:52:53.443Z,445
2017-06-20T04:53:53.454Z,380
2017-06-20T04:54:53.490Z,400
2017-06-20T04:55:53.547Z,340
2017-06-20T04:56:53.574Z,355
2017-06-20T04:57:53.608Z,380
2017-06-20T04:58:53.654Z,350
2017-06-20T04:59:53.715Z,365
2017-06-20T05:00:53.759Z,410
2017-06-20T05:01:53.791Z,375
2017-06-20T05:02:53.823Z,355
2017-06-20T05:03:53.866Z,355
2017-06-20T05:04:53.909Z,370
2017-06-20T05:05:53.959Z,390
2017-06-20T05:06:53.992Z,430
2017-06-20T05:07:54.021Z,510
2017-06-20T05:08:54.058Z,770
2017-06-20T05:09:54.150Z,785
2017-06-20T05:10:54.132Z,490
2017-06-20T05:11:54.192Z,425
2017-06-20T05:12:54.224Z,435
2017-06-20T05:13:54.256Z,490
2017-06-20T05:14:54.291Z,600
2017-06-20T05:15:54.355Z,1045
2017-06-20T05:16:54.384Z,1185
2017-06-20T05:17:54.430Z,1110
2017-06-20T05:18:54.474Z,820
2017-06-20T05:19:54.523Z,505
2017-06-20T05:20:54.557Z,465
2017-06-20T05:21:54.614Z,485
2017-06-20T05:22:54.661Z,550
2017-06-20T05:23:54.669Z,535
2017-06-20T05:24:54.720Z,445
2017-06-20T05:25:54.774Z,485
2017-06-20T05:26:54.764Z,485
2017-06-20T05:27:54.836Z,445
2017-06-20T05:28:54.906Z,420
2017-06-20T05:29:54.897Z,400
2017-06-20T05:30:54.971Z,400
2017-06-20T05:31:54.982Z,440
2017-06-20T05:32:55.039Z,510
2017-06-20T05:33:55.080Z,590
2017-06-20T05:34:55.121Z,555
2017-06-20T05:35:55.146Z,485
2017-06-20T05:36:55.179Z,470
2017-06-20T05:37:55.250Z,470
2017-06-20T05:38:55.283Z,520
2017-06-20T05:39:55.319Z,535
2017-06-20T05:40:55.345Z,500
2017-06-20T05:41:55.399Z,465
2017-06-20T05:42:55.449Z,450
2017-06-20T05:43:55.479Z,445
2017-06-20T05:44:55.538Z,450
2017-06-20T05:45:55.571Z,510
2017-06-20T05:46:55.588Z,540
2017-06-20T05:47:55.602Z,580
2017-06-20T05:48:55.649Z,630
2017-06-20T05:49:55.717Z,565
2017-06-20T05:50:55.765Z,510
2017-06-20T05:51:55.802Z,505
2017-06-20T05:52:55.849Z,565
2017-06-20T05:53:55.881Z,585
2017-06-20T05:54:55.912Z,570
2017-06-20T05:55:56.155Z,560
2017-06-20T05:56:55.980Z,555
2017-06-20T05:57:56.045Z,595
2017-06-20T05:58:56.076Z,565
2017-06-20T05:59:56.125Z,520
2017-06-20T06:00:56.182Z,510
2017-06-20T06:01:56.211Z,500
2017-06-20T06:02:56.253Z,500
2017-06-20T06:03:56.292Z,515
2017-06-20T06:04:56.339Z,535
2017-06-20T06:05:56.372Z,655
2017-06-20T06:06:56.414Z,1065
2017-06-20T06:07:56.445Z,1250
2017-06-20T06:08:56.497Z,950
2017-06-20T06:09:56.530Z,800
2017-06-20T06:10:56.576Z,895
2017-06-20T06:11:56.590Z,910
2017-06-20T06:12:56.661Z,1475
2017-06-20T06:13:56.718Z,1635
2017-06-20T06:14:56.726Z,1660
2017-06-20T06:15:56.794Z,1400
2017-06-20T06:16:56.811Z,1190
2017-06-20T06:17:56.866Z,1215
2017-06-20T06:18:56.917Z,1400
2017-06-20T06:19:56.931Z,1380
2017-06-20T06:20:56.998Z,1610
2017-06-20T06:21:57.002Z,1635
2017-06-20T06:22:57.084Z,1640
2017-06-20T06:23:57.083Z,1600
2017-06-20T06:24:57.159Z,1475
2017-06-20T06:25:57.200Z,1460
2017-06-20T06:26:57.254Z,1905
2017-06-20T06:27:57.263Z,1910
2017-06-20T06:28:57.349Z,1795
2017-06-20T06:29:57.377Z,1890
2017-06-20T06:30:57.422Z,1780
2017-06-20T06:31:57.463Z,1800
2017-06-20T06:32:57.496Z,1910
2017-06-20T06:33:57.539Z,1905
2017-06-20T06:34:57.591Z,1915
2017-06-20T06:35:57.638Z,1905
2017-06-20T06:36:57.681Z,1900
2017-06-20T06:37:57.686Z,1915
2017-06-20T06:38:57.749Z,1980
2017-06-20T06:39:57.797Z,2030
2017-06-20T06:40:57.863Z,2025
2017-06-20T06:41:57.903Z,2020
2017-06-20T06:42:57.963Z,2110
2017-06-20T06:43:58.008Z,2190
2017-06-20T06:44:58.022Z,2165
2017-06-20T06:45:58.078Z,2115
2017-06-20T06:46:58.123Z,2070
2017-06-20T06:47:58.154Z,1825
2017-06-20T06:48:58.231Z,1730
2017-06-20T06:49:58.245Z,1815
2017-06-20T06:50:58.271Z,1790
2017-06-20T06:51:58.370Z,1615
2017-06-20T06:52:58.388Z,1695
2017-06-20T06:53:58.450Z,1650
2017-06-20T06:54:58.503Z,1505
2017-06-20T06:55:58.547Z,1850
2017-06-20T06:56:58.599Z,1730
2017-06-20T06:57:58.624Z,1645
2017-06-20T06:58:58.701Z,1560
2017-06-20T06:59:58.705Z,1455
2017-06-20T07:00:58.759Z,1555
2017-06-20T07:01:58.832Z,1615
2017-06-20T07:02:58.855Z,1650
2017-06-20T07:03:58.950Z,1710
2017-06-20T07:04:58.964Z,1685
2017-06-20T07:05:59.007Z,1690
2017-06-20T07:06:59.068Z,2015
2017-06-20T07:07:59.105Z,2130
2017-06-20T07:08:59.167Z,1970
2017-06-20T07:09:59.200Z,1940
2017-06-20T07:10:59.268Z,2130
2017-06-20T07:11:59.320Z,2015
2017-06-20T07:12:59.305Z,1930
2017-06-20T07:13:59.408Z,1960
2017-06-20T07:14:59.450Z,1890
2017-06-20T07:15:59.494Z,2090
2017-06-20T07:16:59.506Z,1980
2017-06-20T07:17:59.574Z,1850
2017-06-20T07:18:59.608Z,1875
2017-06-20T07:19:59.640Z,1975
2017-06-20T07:20:59.717Z,2085
2017-06-20T07:21:59.779Z,2215
2017-06-20T07:22:59.791Z,2210
2017-06-20T07:23:59.850Z,2165
2017-06-20T07:24:59.926Z,1985
2017-06-20T07:25:59.972Z,1800
2017-06-20T07:26:59.997Z,1765
2017-06-20T07:28:00.062Z,1725
2017-06-20T07:29:00.113Z,1930
2017-06-20T07:30:00.147Z,2015
2017-06-20T07:31:00.201Z,2045
2017-06-20T07:32:00.227Z,2245
2017-06-20T07:33:00.304Z,2185
2017-06-20T07:34:00.358Z,2255
2017-06-20T07:35:00.439Z,2050
2017-06-20T07:36:00.438Z,2215
2017-06-20T07:37:00.511Z,2170
2017-06-20T07:38:00.533Z,2240
2017-06-20T07:39:00.589Z,2415
2017-06-20T07:40:00.577Z,2255
2017-06-20T07:41:00.679Z,2295
2017-06-20T07:42:00.704Z,2390
2017-06-20T07:43:00.757Z,2395
2017-06-20T07:44:00.830Z,2405
2017-06-20T07:45:00.861Z,2225
2017-06-20T07:46:00.923Z,2050
2017-06-20T07:47:00.982Z,1965
2017-06-20T07:48:00.998Z,1715
2017-06-20T07:49:01.053Z,1725
2017-06-20T07:50:01.115Z,2100
2017-06-20T07:51:01.153Z,2315
2017-06-20T07:52:01.250Z,2290
2017-06-20T07:53:01.234Z,2305
2017-06-20T07:54:01.320Z,2125
2017-06-20T07:55:01.373Z,1950
2017-06-20T07:56:01.443Z,2285
2017-06-20T07:57:01.460Z,2330
2017-06-20T07:58:01.506Z,2510
2017-06-20T07:59:01.542Z,2550
2017-06-20T08:00:01.605Z,2460
2017-06-20T08:01:01.651Z,2510
2017-06-20T08:02:01.710Z,2250
2017-06-20T08:03:01.717Z,2485
2017-06-20T08:04:01.803Z,2480
2017-06-20T08:05:01.853Z,2445
2017-06-20T08:06:01.883Z,2450
2017-06-20T08:07:01.957Z,2545
2017-06-20T08:08:01.984Z,2550
2017-06-20T08:09:02.061Z,2670
2017-06-20T08:10:02.088Z,2770
2017-06-20T08:11:02.157Z,2800
2017-06-20T08:12:02.185Z,2695
2017-06-20T08:13:02.257Z,2630
2017-06-20T08:14:02.285Z,2545
2017-06-20T08:15:02.353Z,2655
2017-06-20T08:16:02.412Z,2635
2017-06-20T08:17:02.454Z,2680
2017-06-20T08:18:02.514Z,2705
2017-06-20T08:19:02.525Z,2710
2017-06-20T08:20:02.606Z,2750
2017-06-20T08:21:02.654Z,2630
2017-06-20T08:22:02.678Z,2460
2017-06-20T08:23:02.760Z,2455
2017-06-20T08:24:02.768Z,2690
2017-06-20T08:25:02.858Z,2725
2017-06-20T08:26:02.909Z,2590
2017-06-20T08:27:02.962Z,2230
2017-06-20T08:28:03.017Z,2190
2017-06-20T08:29:03.062Z,2560
2017-06-20T08:30:03.136Z,2465
2017-06-20T08:31:03.191Z,2405
2017-06-20T08:32:03.206Z,2645
2017-06-20T08:33:03.239Z,2780
2017-06-20T08:34:03.324Z,2930
2017-06-20T08:35:03.374Z,2915
2017-06-20T08:36:03.432Z,2905
2017-06-20T08:37:03.471Z,2670
2017-06-20T08:38:03.518Z,2575
2017-06-20T08:39:03.576Z,2640
2017-06-20T08:40:03.774Z,2810
2017-06-20T08:41:03.682Z,2770
2017-06-20T08:42:03.744Z,2795
2017-06-20T08:43:03.784Z,2840
2017-06-20T08:44:03.842Z,2840
2017-06-20T08:45:03.882Z,2905
2017-06-20T08:46:03.937Z,3110
2017-06-20T08:47:03.987Z,2965
2017-06-20T08:48:04.025Z,2925
2017-06-20T08:49:04.076Z,3045
2017-06-20T08:50:04.137Z,2910
2017-06-20T08:51:04.194Z,2765
2017-06-20T08:52:04.228Z,2725
2017-06-20T08:53:04.294Z,2675
2017-06-20T08:54:04.345Z,2810
2017-06-20T08:55:04.696Z,2505
2017-06-20T08:56:04.410Z,2450
2017-06-20T08:57:04.521Z,2605
2017-06-20T08:58:04.514Z,2760
2017-06-20T08:59:04.612Z,2805
2017-06-20T09:00:04.687Z,2875
2017-06-20T09:01:04.707Z,2695
2017-06-20T09:02:04.736Z,2565
2017-06-20T09:03:04.794Z,2630
2017-06-20T09:04:04.858Z,2550
2017-06-20T09:05:04.958Z,2695
2017-06-20T09:06:05.013Z,2755
2017-06-20T09:07:05.030Z,3000
2017-06-20T09:08:05.080Z,3030
2017-06-20T09:09:05.104Z,2680
2017-06-20T09:10:05.173Z,2555
2017-06-20T09:11:05.229Z,2430
2017-06-20T09:12:05.255Z,2755
2017-06-20T09:13:05.307Z,2625
2017-06-20T09:14:05.391Z,2415
2017-06-20T09:15:05.435Z,2470
2017-06-20T09:16:05.495Z,2550
2017-06-20T09:17:05.537Z,2455
2017-06-20T09:18:05.593Z,2170
2017-06-20T09:19:05.636Z,2370
2017-06-20T09:20:05.702Z,2350
2017-06-20T09:21:05.713Z,2305
2017-06-20T09:22:05.782Z,2305
2017-06-20T09:23:05.845Z,2565
2017-06-20T09:24:05.901Z,2650
2017-06-20T09:25:05.953Z,2525
2017-06-20T09:26:05.989Z,2115
2017-06-20T09:27:06.035Z,2020
2017-06-20T09:28:06.091Z,2010
2017-06-20T09:29:06.154Z,2055
2017-06-20T09:30:06.203Z,2140
2017-06-20T09:31:06.236Z,2050
2017-06-20T09:32:06.317Z,1760
2017-06-20T09:33:06.421Z,1730
2017-06-20T09:34:06.426Z,1675
2017-06-20T09:35:06.468Z,1775
2017-06-20T09:36:06.540Z,1830
2017-06-20T09:37:06.600Z,1830
2017-06-20T09:38:06.603Z,1845
2017-06-20T09:39:06.702Z,1955
2017-06-20T09:40:06.706Z,1935
2017-06-20T09:41:06.796Z,2010
2017-06-20T09:42:06.839Z,2010
2017-06-20T09:43:06.889Z,1975
2017-06-20T09:44:06.932Z,1935
2017-06-20T09:45:07.104Z,1975
2017-06-20T09:46:07.048Z,2125
2017-06-20T09:47:07.089Z,1875
2017-06-20T09:48:07.187Z,1925
2017-06-20T09:49:07.191Z,2010
2017-06-20T09:50:07.252Z,1065
2017-06-20T09:51:07.314Z,1495
2017-06-20T09:52:07.350Z,745
2017-06-20T09:53:07.422Z,1805
2017-06-20T09:54:07.448Z,1960
2017-06-20T09:55:07.502Z,2045
2017-06-20T09:56:07.570Z,2095
2017-06-20T09:57:07.615Z,2090
2017-06-20T09:58:07.659Z,2000
2017-06-20T09:59:07.721Z,2160
2017-06-20T10:00:07.775Z,2065
2017-06-20T10:01:07.813Z,810
2017-06-20T10:02:07.858Z,1210
2017-06-20T10:03:07.921Z,815
2017-06-20T10:04:07.939Z,1685
2017-06-20T10:05:08.022Z,785
2017-06-20T10:06:08.038Z,2000
2017-06-20T10:07:08.120Z,2205
2017-06-20T10:08:08.172Z,1135
2017-06-20T10:09:08.219Z,740
2017-06-20T10:10:08.354Z,725
2017-06-20T10:11:08.319Z,855
2017-06-20T10:12:08.386Z,2110
2017-06-20T10:13:08.411Z,770
2017-06-20T10:14:08.506Z,610
2017-06-20T10:15:08.522Z,600
2017-06-20T10:16:08.572Z,1000
2017-06-20T10:17:08.624Z,2100
2017-06-20T10:18:08.639Z,1115
2017-06-20T10:19:08.704Z,2110
2017-06-20T10:20:08.761Z,2150
2017-06-20T10:21:08.788Z,705
2017-06-20T10:22:08.855Z,605
2017-06-20T10:23:08.881Z,625
2017-06-20T10:24:08.931Z,2130
2017-06-20T10:25:34.654Z,895
2017-06-20T10:26:09.050Z,1990
2017-06-20T10:27:09.014Z,605
2017-06-20T10:28:09.128Z,550
2017-06-20T10:29:09.169Z,525
2017-06-20T10:30:09.235Z,565
2017-06-20T10:31:09.261Z,530
2017-06-20T10:32:09.521Z,525
2017-06-20T10:33:09.361Z,530
2017-06-20T10:34:09.412Z,490
2017-06-20T10:35:09.468Z,1805
2017-06-20T10:36:09.505Z,1985
2017-06-20T10:37:09.538Z,1995
2017-06-20T10:38:09.588Z,1785
2017-06-20T10:39:09.606Z,725
2017-06-20T10:40:09.708Z,1860
2017-06-20T10:41:09.738Z,2360
2017-06-20T10:42:09.775Z,2405
2017-06-20T10:43:09.808Z,825
2017-06-20T10:44:09.878Z,590
2017-06-20T10:45:09.936Z,495
2017-06-20T10:46:09.946Z,485
2017-06-20T10:47:09.992Z,460
2017-06-20T10:48:10.043Z,505
2017-06-20T10:49:10.078Z,2030
2017-06-20T10:50:10.342Z,1990
2017-06-20T10:51:10.181Z,1980
2017-06-20T10:52:10.231Z,2010
2017-06-20T10:53:10.270Z,2045
2017-06-20T10:54:10.308Z,2120
2017-06-20T10:55:10.366Z,2130
2017-06-20T10:56:10.408Z,2070
2017-06-20T10:57:10.437Z,2010
2017-06-20T10:58:10.478Z,2010
2017-06-20T10:59:10.555Z,2235
2017-06-20T11:00:10.590Z,2280
2017-06-20T11:01:10.643Z,1855
2017-06-20T11:02:10.692Z,620
2017-06-20T11:03:10.704Z,2150
2017-06-20T11:04:10.771Z,2085
2017-06-20T11:05:10.797Z,2110
2017-06-20T11:06:11.150Z,1980
2017-06-20T11:07:10.906Z,1775
2017-06-20T11:08:10.941Z,495
2017-06-20T11:09:10.971Z,745
2017-06-20T11:10:11.030Z,570
2017-06-20T11:11:11.053Z,610
2017-06-20T11:12:11.134Z,520
2017-06-20T11:13:11.163Z,410
2017-06-20T11:14:11.235Z,490
2017-06-20T11:15:11.404Z,420
2017-06-20T11:16:11.286Z,580
2017-06-20T11:17:11.339Z,590
2017-06-20T11:18:11.376Z,585
2017-06-20T11:19:11.432Z,580
2017-06-20T11:20:11.495Z,570
2017-06-20T11:21:11.514Z,550
2017-06-20T11:22:11.597Z,535
2017-06-20T11:23:11.575Z,535
2017-06-20T11:24:11.634Z,540
2017-06-20T11:25:11.695Z,530
2017-06-20T11:26:11.727Z,600
2017-06-20T11:27:11.792Z,590
2017-06-20T11:28:11.816Z,545
2017-06-20T11:29:11.876Z,530
2017-06-20T11:30:11.938Z,460
2017-06-20T11:31:11.962Z,410
2017-06-20T11:32:12.013Z,355
2017-06-20T11:33:12.024Z,340
2017-06-20T11:34:12.075Z,335
2017-06-20T11:35:12.146Z,360
2017-06-20T11:36:12.166Z,445
2017-06-20T11:37:12.206Z,540
2017-06-20T11:38:12.263Z,555
2017-06-20T11:39:12.295Z,525
2017-06-20T11:40:12.368Z,500
2017-06-20T11:41:12.361Z,485
2017-06-20T11:42:12.436Z,485
2017-06-20T11:43:12.467Z,475
2017-06-20T11:44:12.529Z,485
2017-06-20T11:45:12.588Z,510
2017-06-20T11:46:12.592Z,470
2017-06-20T11:47:12.634Z,515
2017-06-20T11:48:12.678Z,565
2017-06-20T11:49:12.737Z,505
2017-06-20T11:50:12.787Z,530
2017-06-20T11:51:12.828Z,525
2017-06-20T11:52:12.869Z,510
2017-06-20T11:53:12.908Z,495
2017-06-20T11:54:12.955Z,490
2017-06-20T11:55:12.994Z,500
2017-06-20T11:56:13.027Z,500
2017-06-20T11:57:13.092Z,495
2017-06-20T11:58:13.139Z,500
2017-06-20T11:59:13.172Z,520
2017-06-20T12:00:13.523Z,535
2017-06-20T12:01:13.275Z,535
2017-06-20T12:02:13.311Z,565
2017-06-20T12:03:13.328Z,485
2017-06-20T12:04:13.367Z,450
2017-06-20T12:05:13.507Z,460
2017-06-20T12:06:13.471Z,485
2017-06-20T12:07:13.512Z,470
2017-06-20T12:08:13.621Z,450
2017-06-20T12:09:13.588Z,440
2017-06-20T12:10:13.958Z,440
2017-06-20T12:11:13.707Z,445
2017-06-20T12:12:13.737Z,445
2017-06-20T12:13:13.769Z,445
2017-06-20T12:14:13.812Z,450
2017-06-20T12:15:13.958Z,455
2017-06-20T12:16:13.894Z,445
2017-06-20T12:17:13.946Z,425
2017-06-20T12:18:13.954Z,440
2017-06-20T12:19:14.032Z,440
2017-06-20T12:20:14.107Z,430
2017-06-20T12:21:14.097Z,435
2017-06-20T12:22:14.157Z,450
2017-06-20T12:23:14.185Z,450
2017-06-20T12:24:14.221Z,470
2017-06-20T12:25:14.273Z,505
2017-06-20T12:26:14.332Z,505
2017-06-20T12:27:14.350Z,480
2017-06-20T12:28:14.413Z,505
2017-06-20T12:29:14.446Z,495
2017-06-20T12:30:14.510Z,460
2017-06-20T12:31:14.547Z,425
2017-06-20T12:32:14.563Z,460
2017-06-20T12:33:14.614Z,445
2017-06-20T12:34:14.666Z,435
2017-06-20T12:35:14.731Z,435
2017-06-20T12:36:14.746Z,415
2017-06-20T12:37:14.772Z,385
2017-06-20T12:38:14.815Z,385
2017-06-20T12:39:14.881Z,375
2017-06-20T12:40:14.894Z,380
2017-06-20T12:41:14.971Z,390
2017-06-20T12:42:14.994Z,405
2017-06-20T12:43:14.993Z,400
2017-06-20T12:44:15.092Z,380
2017-06-20T12:45:15.132Z,350
2017-06-20T12:46:15.168Z,345
2017-06-20T12:47:15.178Z,325
2017-06-20T12:48:15.254Z,345
2017-06-20T12:49:15.280Z,345
2017-06-20T12:50:15.352Z,360
2017-06-20T12:51:15.394Z,380
2017-06-20T12:52:15.434Z,385
2017-06-20T12:53:15.448Z,380
2017-06-20T12:54:15.497Z,370
2017-06-20T12:55:15.546Z,370
2017-06-20T12:56:15.574Z,360
2017-06-20T12:57:15.639Z,355
2017-06-20T12:58:15.667Z,350
2017-06-20T12:59:15.704Z,350
2017-06-20T13:00:15.760Z,365
2017-06-20T13:01:15.801Z,385
2017-06-20T13:02:15.852Z,375
2017-06-20T13:03:15.853Z,370
2017-06-20T13:04:15.914Z,355
2017-06-20T13:05:15.975Z,340
2017-06-20T13:06:16.032Z,325
2017-06-20T13:07:16.052Z,320
2017-06-20T13:08:16.102Z,310
2017-06-20T13:09:16.145Z,305
2017-06-20T13:10:16.325Z,295
2017-06-20T13:11:16.222Z,280
2017-06-20T13:12:16.251Z,285
2017-06-20T13:13:16.300Z,290
2017-06-20T13:14:16.336Z,305
2017-06-20T13:15:16.385Z,315
2017-06-20T13:16:16.443Z,310
2017-06-20T13:17:16.482Z,345
2017-06-20T13:18:16.523Z,375
2017-06-20T13:19:16.552Z,370
2017-06-20T13:20:16.583Z,360
2017-06-20T13:21:16.645Z,355
2017-06-20T13:22:16.701Z,335
2017-06-20T13:23:16.755Z,315
2017-06-20T13:24:16.787Z,310
2017-06-20T13:25:16.818Z,325
2017-06-20T13:26:16.851Z,335
2017-06-20T13:27:16.914Z,330
2017-06-20T13:28:16.930Z,330
2017-06-20T13:29:16.989Z,355
2017-06-20T13:30:17.006Z,335
2017-06-20T13:31:17.052Z,340
2017-06-20T13:32:17.113Z,390
2017-06-20T13:33:17.150Z,385
2017-06-20T13:34:17.189Z,350
2017-06-20T13:35:17.510Z,345
2017-06-20T13:36:17.242Z,315
2017-06-20T13:37:17.320Z,295
2017-06-20T13:38:17.349Z,305
2017-06-20T13:39:17.379Z,350
2017-06-20T13:40:17.460Z,320
2017-06-20T13:41:17.468Z,315
2017-06-20T13:42:17.532Z,320
2017-06-20T13:43:17.567Z,330
2017-06-20T13:44:17.600Z,320
2017-06-20T13:45:17.661Z,305
2017-06-20T13:46:17.704Z,315
2017-06-20T13:47:17.747Z,290
2017-06-20T13:48:17.749Z,300
2017-06-20T13:49:17.807Z,290
2017-06-20T13:50:17.842Z,280
2017-06-20T13:51:17.900Z,280